Dillingham Airport Dillingham US
ICAO: PADL
IATA:
Category: Medium
Scheduled Services:

Elevation: 81 ft
TransAlt. 18000 ft.

Airport Communications:
ATIS:125
AWOS 3:135.55
ANCHORAGE CNTR:132.75
CTAF:123.6
RDO:122.3

PADL Zoom In..

If you have problems with the map follow the link
https://www.worldairports.se/pages/airport.php?
ICAO=PADL

Runways:

(A) RW 01 length 6400 ft width 150 ft
LOC 111.90 / hdg 11

(B) RW 19 length 6400 ft width 150 ft
LOC 111.90 / hdg 191

Location; PADL
Day. 21 / Time. 05.56 Zulu
* Altimeter: 29.53
* Temperature: -11° c. -12.2°f.
* Wind from: 030° Speed 03 kn.
Dewpoint: -12° c.
Visibility: 5 Statute Miles.
Clouds: Overcast 400 ft.
Conditions: Mist.

PADL 210556Z 03003KT 5SM BR OVC004 M11/M12 A2953 RMK AO2 SNE50 SLP003 P0000 60000 T11111122 11094 21111 51004


Wind From 030°
Speed 03 kn.

 
 
jpsmedia worldairports.se 2020   terms of use